Time;durP1;ratioP1;P1;durP2;ratioP2;P2;SDS_P1;SDS_P2;PMS_P1;PMS_P2;Temp;Humidity;BMP_temperature;BMP_pressure;BME280_temperature;BME280_humidity;BME280_pressure;Samples;Min_cycle;Max_cycle;Signal;HPM_P1;HPM_P2
2024/04/10 00:01:37;;;;;;;;;;;;;;;;;;5603174;25;19926;-72
2024/04/10 00:04:03;;;;;;;;;;;;;;;;;;5602635;25;19927;-72
2024/04/10 00:06:29;;;;;;;;;;;;;;;;;;5603165;25;19927;-72
2024/04/10 00:08:55;;;;;;;;;;;;;;;;;;5569565;25;19927;-72
2024/04/10 00:11:24;;;;;;;;;;;;;;;;;;5602566;25;19930;-72
2024/04/10 00:13:50;;;;;;;;;;;;;;;;;;5602925;25;19994;-72
2024/04/10 00:16:16;;;;;;;;;;;;;;;;;;5602908;25;20375;-72
2024/04/10 00:18:42;;;;;;;;;;;;;;;;;;5602052;25;19975;-72
2024/04/10 00:21:08;;;;;;;;;;;;;;;;;;5569327;25;19962;-72
2024/04/10 00:23:34;;;;;;;;;;;;;;;;;;5602648;25;19933;-71
2024/04/10 00:26:00;;;;;;;;;;;;;;;;;;5568926;25;19926;-71
2024/04/10 00:28:26;;;;;;;;;;;;;;;;;;5602625;25;19937;-71
2024/04/10 00:30:52;;;;;;;;;;;;;;;;;;5569190;25;20001;-72
2024/04/10 00:33:18;;;;;;;;;;;;;;;;;;5602228;25;20227;-73
2024/04/10 00:35:44;;;;;;;;;;;;;;;;;;5602508;25;19926;-73
2024/04/10 00:38:12;;;;;;;;;;;;;;;;;;5602643;25;19926;-72
2024/04/10 00:40:38;;;;;;;;;;;;;;;;;;5568445;25;20347;-72
2024/04/10 00:43:04;;;;;;;;;;;;;;;;;;5568823;25;19938;-72
2024/04/10 00:45:30;;;;;;;;;;;;;;;;;;5602813;25;19927;-72
2024/04/10 00:47:56;;;;;;;;;;;;;;;;;;5568706;25;20362;-72
2024/04/10 00:50:22;;;;;;;;;;;;;;;;;;5602759;25;19998;-72
2024/04/10 00:52:48;;;;;;;;;;;;;;;;;;5602171;25;19926;-72
2024/04/10 00:55:14;;;;;;;;;;;;;;;;;;5602402;25;19954;-72
2024/04/10 00:57:40;;;;;;;;;;;;;;;;;;5569053;25;19938;-72
2024/04/10 01:00:06;;;;;;;;;;;;;;;;;;5568436;25;19926;-72
2024/04/10 01:02:31;;;;;;;;;;;;;;;;;;5568807;25;19953;-72
2024/04/10 01:04:57;;;;;;;;;;;;;;;;;;5568861;25;20377;-72
2024/04/10 01:07:23;;;;;;;;;;;;;;;;;;5568260;25;20379;-72
2024/04/10 01:09:49;;;;;;;;;;;;;;;;;;5602403;25;19934;-72
2024/04/10 01:12:15;;;;;;;;;;;;;;;;;;5602199;25;19933;-72
2024/04/10 01:14:41;;;;;;;;;;;;;;;;;;5601809;25;19926;-72
2024/04/10 01:17:07;;;;;;;;;;;;;;;;;;5602146;25;19998;-72
2024/04/10 01:19:33;;;;;;;;;;;;;;;;;;5568392;25;19926;-72
2024/04/10 01:21:59;;;;;;;;;;;;;;;;;;5567921;25;19952;-72
2024/04/10 01:24:25;;;;;;;;;;;;;;;;;;5602004;25;20269;-71
2024/04/10 01:26:51;;;;;;;;;;;;;;;;;;5601857;25;19926;-71
2024/04/10 01:29:17;;;;;;;;;;;;;;;;;;5602297;25;19934;-71
2024/04/10 01:31:43;;;;;;;;;;;;;;;;;;5605659;25;19934;-70
2024/04/10 01:34:09;;;;;;;;;;;;;;;;;;5605658;25;20353;-72
2024/04/10 01:36:35;;;;;;;;;;;;;;;;;;5605245;25;19938;-72
2024/04/10 01:39:01;;;;;;;;;;;;;;;;;;5605508;25;19934;-72
2024/04/10 01:41:27;;;;;;;;;;;;;;;;;;5605594;25;20358;-72
2024/04/10 01:43:54;;;;;;;;;;;;;;;;;;5604634;25;19926;-72
2024/04/10 01:46:19;;;;;;;;;;;;;;;;;;5605271;25;19933;-72
2024/04/10 01:48:45;;;;;;;;;;;;;;;;;;5571694;25;19934;-72
2024/04/10 01:51:11;;;;;;;;;;;;;;;;;;5604641;25;19938;-72
2024/04/10 01:53:37;;;;;;;;;;;;;;;;;;5605215;25;19934;-72
2024/04/10 01:56:03;;;;;;;;;;;;;;;;;;5604603;25;19933;-72
2024/04/10 01:58:31;;;;;;;;;;;;;;;;;;5604984;25;20372;-72
2024/04/10 02:00:57;;;;;;;;;;;;;;;;;;5604919;25;19926;-72
2024/04/10 02:03:23;;;;;;;;;;;;;;;;;;5570846;25;20265;-72
2024/04/10 02:05:49;;;;;;;;;;;;;;;;;;5604935;25;19934;-71
2024/04/10 02:08:15;;;;;;;;;;;;;;;;;;5604829;25;19934;-72
2024/04/10 02:10:41;;;;;;;;;;;;;;;;;;5604315;25;19993;-72
2024/04/10 02:13:07;;;;;;;;;;;;;;;;;;5604792;25;19934;-71
2024/04/10 02:15:33;;;;;;;;;;;;;;;;;;5604736;25;19927;-71
2024/04/10 02:17:59;;;;;;;;;;;;;;;;;;5604419;25;20378;-72
2024/04/10 02:20:26;;;;;;;;;;;;;;;;;;5604706;25;20362;-72
2024/04/10 02:22:52;;;;;;;;;;;;;;;;;;5604493;25;19998;-72
2024/04/10 02:25:18;;;;;;;;;;;;;;;;;;5604216;25;20378;-71
2024/04/10 02:27:44;;;;;;;;;;;;;;;;;;5604760;25;20377;-71
2024/04/10 02:30:10;;;;;;;;;;;;;;;;;;5604482;25;19937;-71
2024/04/10 02:32:36;;;;;;;;;;;;;;;;;;5604014;25;19934;-71
2024/04/10 02:35:02;;;;;;;;;;;;;;;;;;5604507;25;19927;-71
2024/04/10 02:37:28;;;;;;;;;;;;;;;;;;5570895;25;19927;-72
2024/04/10 02:39:54;;;;;;;;;;;;;;;;;;5570417;25;19926;-71
2024/04/10 02:42:20;;;;;;;;;;;;;;;;;;5604170;25;19930;-71
2024/04/10 02:44:51;;;;;;;;;;;;;;;;;;5604718;25;19935;-71
2024/04/10 02:47:16;;;;;;;;;;;;;;;;;;5604087;25;19926;-72
2024/04/10 02:49:42;;;;;;;;;;;;;;;;;;5571159;25;20353;-71
2024/04/10 02:52:08;;;;;;;;;;;;;;;;;;5604552;25;20338;-71
2024/04/10 02:54:34;;;;;;;;;;;;;;;;;;5604030;25;19938;-71
2024/04/10 02:57:00;;;;;;;;;;;;;;;;;;5604541;25;19937;-72
2024/04/10 02:59:26;;;;;;;;;;;;;;;;;;5604051;25;19927;-71
2024/04/10 03:01:52;;;;;;;;;;;;;;;;;;5604477;25;19926;-71
2024/04/10 03:04:18;;;;;;;;;;;;;;;;;;5570768;25;19934;-71
2024/04/10 03:06:44;;;;;;;;;;;;;;;;;;5603844;25;19938;-71
2024/04/10 03:09:10;;;;;;;;;;;;;;;;;;5604243;25;19933;-71
2024/04/10 03:11:36;;;;;;;;;;;;;;;;;;5570714;25;20299;-71
2024/04/10 03:14:02;;;;;;;;;;;;;;;;;;5570168;25;19934;-71
2024/04/10 03:16:29;;;;;;;;;;;;;;;;;;5604253;25;19926;-71
2024/04/10 03:18:55;;;;;;;;;;;;;;;;;;5604095;25;19926;-72
2024/04/10 03:21:21;;;;;;;;;;;;;;;;;;5603723;25;20323;-71
2024/04/10 03:23:47;;;;;;;;;;;;;;;;;;5603954;25;19993;-71
2024/04/10 03:26:13;;;;;;;;;;;;;;;;;;5604071;25;19998;-71
2024/04/10 03:28:40;;;;;;;;;;;;;;;;;;5570149;25;19933;-71
2024/04/10 03:31:06;;;;;;;;;;;;;;;;;;5603963;25;19926;-71
2024/04/10 03:33:32;;;;;;;;;;;;;;;;;;5570426;25;19934;-71
2024/04/10 03:35:58;;;;;;;;;;;;;;;;;;5569913;25;19926;-71
2024/04/10 03:38:24;;;;;;;;;;;;;;;;;;5570306;25;19937;-72
2024/04/10 03:40:51;;;;;;;;;;;;;;;;;;5603846;25;19930;-72
2024/04/10 03:43:17;;;;;;;;;;;;;;;;;;5602778;25;19934;-72
2024/04/10 03:45:43;;;;;;;;;;;;;;;;;;5603411;25;19926;-72
2024/04/10 03:48:09;;;;;;;;;;;;;;;;;;5603292;25;19927;-72
2024/04/10 03:50:35;;;;;;;;;;;;;;;;;;5602959;25;20373;-72
2024/04/10 03:53:01;;;;;;;;;;;;;;;;;;5602519;25;20272;-72
2024/04/10 03:55:27;;;;;;;;;;;;;;;;;;5569819;25;20323;-72
2024/04/10 03:57:53;;;;;;;;;;;;;;;;;;5602726;25;19926;-72
2024/04/10 04:00:19;;;;;;;;;;;;;;;;;;5603236;25;19927;-72
2024/04/10 04:02:45;;;;;;;;;;;;;;;;;;5602590;25;19994;-72
2024/04/10 04:05:10;;;;;;;;;;;;;;;;;;5603130;25;19938;-72
2024/04/10 04:07:36;;;;;;;;;;;;;;;;;;5603138;25;19926;-72
2024/04/10 04:10:02;;;;;;;;;;;;;;;;;;5602686;25;19977;-72
2024/04/10 04:12:28;;;;;;;;;;;;;;;;;;5603058;25;19927;-71
2024/04/10 04:14:54;;;;;;;;;;;;;;;;;;5603080;25;19997;-72
2024/04/10 04:17:20;;;;;;;;;;;;;;;;;;5602403;25;19926;-72
2024/04/10 04:19:46;;;;;;;;;;;;;;;;;;5569390;25;19926;-71
2024/04/10 04:22:12;;;;;;;;;;;;;;;;;;5602805;25;20271;-71
2024/04/10 04:24:38;;;;;;;;;;;;;;;;;;5568939;25;19936;-71
2024/04/10 04:27:05;;;;;;;;;;;;;;;;;;5602779;25;19938;-72
2024/04/10 04:29:33;;;;;;;;;;;;;;;;;;5602620;25;20355;-71
2024/04/10 04:31:59;;;;;;;;;;;;;;;;;;5602226;25;19937;-72
2024/04/10 04:34:25;;;;;;;;;;;;;;;;;;5602544;25;19931;-72
2024/04/10 04:36:51;;;;;;;;;;;;;;;;;;5602730;25;19994;-72
2024/04/10 04:39:18;;;;;;;;;;;;;;;;;;5601997;25;19950;-73
2024/04/10 04:41:44;;;;;;;;;;;;;;;;;;5602434;25;19931;-72
2024/04/10 04:44:11;;;;;;;;;;;;;;;;;;5602552;25;19935;-72
2024/04/10 04:46:37;;;;;;;;;;;;;;;;;;5602172;25;19955;-72
2024/04/10 04:49:03;;;;;;;;;;;;;;;;;;5602360;25;20353;-72
2024/04/10 04:51:29;;;;;;;;;;;;;;;;;;5602596;25;19938;-72
2024/04/10 04:53:55;;;;;;;;;;;;;;;;;;5602115;25;20280;-72
2024/04/10 04:56:21;;;;;;;;;;;;;;;;;;5602577;25;19938;-72
2024/04/10 04:58:47;;;;;;;;;;;;;;;;;;5568913;25;19934;-72
2024/04/10 05:01:13;;;;;;;;;;;;;;;;;;5568514;25;19933;-72
2024/04/10 05:06:24;;;;;;;;;;;;;;;;;;5605856;25;19989;-71
2024/04/10 05:08:50;;;;;;;;;;;;;;;;;;5572558;25;19938;-72
2024/04/10 05:11:16;;;;;;;;;;;;;;;;;;5606025;25;19926;-72
2024/04/10 05:13:42;;;;;;;;;;;;;;;;;;5605529;25;19926;-72
2024/04/10 05:16:10;;;;;;;;;;;;;;;;;;5606097;25;20000;-71
2024/04/10 05:18:36;;;;;;;;;;;;;;;;;;5572453;25;19930;-72
2024/04/10 05:21:03;;;;;;;;;;;;;;;;;;5605604;25;19937;-71
2024/04/10 05:23:29;;;;;;;;;;;;;;;;;;5572329;25;19926;-70
2024/04/10 05:25:55;;;;;;;;;;;;;;;;;;5605892;25;19927;-71
2024/04/10 05:28:24;;;;;;;;;;;;;;;;;;5605406;25;19926;-71
2024/04/10 05:30:51;;;;;;;;;;;;;;;;;;5605770;25;19934;-72
2024/04/10 05:33:16;;;;;;;;;;;;;;;;;;5605712;25;19926;-71
2024/04/10 05:35:43;;;;;;;;;;;;;;;;;;5605202;25;19932;-71
2024/04/10 05:38:09;;;;;;;;;;;;;;;;;;5605623;25;19927;-71
2024/04/10 05:40:36;;;;;;;;;;;;;;;;;;5572148;25;20061;-71
2024/04/10 05:43:02;;;;;;;;;;;;;;;;;;5571336;25;20283;-71
2024/04/10 05:45:30;;;;;;;;;;;;;;;;;;5571954;25;20258;-71
2024/04/10 05:47:56;;;;;;;;;;;;;;;;;;5605521;25;19994;-72
2024/04/10 05:50:22;;;;;;;;;;;;;;;;;;5571477;25;19927;-72
2024/04/10 05:52:48;;;;;;;;;;;;;;;;;;5605491;25;19955;-72
2024/04/10 05:55:13;;;;;;;;;;;;;;;;;;5604684;25;19927;-72
2024/04/10 05:57:39;;;;;;;;;;;;;;;;;;5605241;25;20366;-72
2024/04/10 06:00:07;;;;;;;;;;;;;;;;;;5605443;25;20262;-70
2024/04/10 06:02:38;;;;;;;;;;;;;;;;;;5604672;25;19926;-71
2024/04/10 06:05:04;;;;;;;;;;;;;;;;;;5605253;25;19927;-71
2024/04/10 06:07:30;;;;;;;;;;;;;;;;;;5571718;25;19993;-71
2024/04/10 06:09:56;;;;;;;;;;;;;;;;;;5604712;25;19938;-72
2024/04/10 06:12:22;;;;;;;;;;;;;;;;;;5571661;25;19933;-72
2024/04/10 06:14:48;;;;;;;;;;;;;;;;;;5570892;25;19930;-72
2024/04/10 06:17:14;;;;;;;;;;;;;;;;;;5604478;25;19938;-72
2024/04/10 06:19:41;;;;;;;;;;;;;;;;;;5571556;25;20359;-71
2024/04/10 06:22:07;;;;;;;;;;;;;;;;;;5571430;25;20350;-71
2024/04/10 06:24:33;;;;;;;;;;;;;;;;;;5604486;25;19939;-71
2024/04/10 06:26:59;;;;;;;;;;;;;;;;;;5604828;25;19926;-72
2024/04/10 06:29:25;;;;;;;;;;;;;;;;;;5571333;25;19948;-71
2024/04/10 06:31:51;;;;;;;;;;;;;;;;;;5604442;25;19926;-72
2024/04/10 06:34:17;;;;;;;;;;;;;;;;;;5604863;25;19993;-72
2024/04/10 06:36:43;;;;;;;;;;;;;;;;;;5571197;25;19934;-72
2024/04/10 06:39:10;;;;;;;;;;;;;;;;;;5604317;25;19930;-72
2024/04/10 06:41:36;;;;;;;;;;;;;;;;;;5604590;25;19936;-71
2024/04/10 06:44:02;;;;;;;;;;;;;;;;;;5604413;25;20259;-71
2024/04/10 06:46:28;;;;;;;;;;;;;;;;;;5603986;25;19935;-72
2024/04/10 06:48:54;;;;;;;;;;;;;;;;;;5604521;25;20319;-72
2024/04/10 06:51:20;;;;;;;;;;;;;;;;;;5604504;25;19934;-72
2024/04/10 06:53:46;;;;;;;;;;;;;;;;;;5570572;25;19993;-72
2024/04/10 06:56:12;;;;;;;;;;;;;;;;;;5570928;25;19926;-71
2024/04/10 06:58:38;;;;;;;;;;;;;;;;;;5603948;25;19934;-73
2024/04/10 07:01:04;;;;;;;;;;;;;;;;;;5604342;25;20254;-71
2024/04/10 07:03:30;;;;;;;;;;;;;;;;;;5570821;25;19926;-71
2024/04/10 07:05:56;;;;;;;;;;;;;;;;;;5603890;25;19933;-71
2024/04/10 07:08:22;;;;;;;;;;;;;;;;;;5604324;25;19948;-71
2024/04/10 07:10:48;;;;;;;;;;;;;;;;;;5604183;25;20377;-72
2024/04/10 07:13:14;;;;;;;;;;;;;;;;;;5603746;25;20366;-71
2024/04/10 07:15:40;;;;;;;;;;;;;;;;;;5604414;25;20254;-72
2024/04/10 07:18:05;;;;;;;;;;;;;;;;;;5604283;25;19926;-72
2024/04/10 07:20:31;;;;;;;;;;;;;;;;;;5603689;25;19927;-71
2024/04/10 07:22:58;;;;;;;;;;;;;;;;;;5570563;25;19937;-71
2024/04/10 07:25:24;;;;;;;;;;;;;;;;;;5570707;25;19998;-71
2024/04/10 07:27:50;;;;;;;;;;;;;;;;;;5602190;25;19939;-71
2024/04/10 07:30:16;;;;;;;;;;;;;;;;;;5604046;25;19926;-72
2024/04/10 07:35:57;;;;;;;;;;;;;;;;;;5583705;25;19927;-71
2024/04/10 07:38:23;;;;;;;;;;;;;;;;;;5584223;25;19934;-72
2024/04/10 07:40:49;;;;;;;;;;;;;;;;;;5583866;25;20377;-72
2024/04/10 07:43:15;;;;;;;;;;;;;;;;;;5584305;25;19927;-72
2024/04/10 07:45:41;;;;;;;;;;;;;;;;;;5584299;25;19934;-73
2024/04/10 07:48:35;;;;;;;;;;;;;;;;;;5621631;25;19926;-71
2024/04/10 07:52:20;;;;;;;;;;;;;;;;;;5472725;26;19935;-71
2024/04/10 07:55:14;;;;;;;;;;;;;;;;;;5622127;25;19926;-71
2024/04/10 07:57:40;;;;;;;;;;;;;;;;;;5622384;25;19993;-71
2024/04/10 08:00:08;;;;;;;;;;;;;;;;;;5622000;25;19934;-71
2024/04/10 08:02:34;;;;;;;;;;;;;;;;;;5588214;25;19942;-70
2024/04/10 08:06:37;;;;;;;;;;;;;;;;;;5607370;25;19927;-71
2024/04/10 08:09:03;;;;;;;;;;;;;;;;;;5546229;25;20335;-71
2024/04/10 08:12:55;;;;;;;;;;;;;;;;;;5472541;26;19928;-72
2024/04/10 08:20:09;;;;;;;;;;;;;;;;;;5607683;25;19934;-71
2024/04/10 08:25:10;;;;;;;;;;;;;;;;;;5621865;25;19933;-71
2024/04/10 08:27:36;;;;;;;;;;;;;;;;;;5622432;25;20362;-71
2024/04/10 08:35:11;;;;;;;;;;;;;;;;;;5607693;25;20255;-72
2024/04/10 08:37:37;;;;;;;;;;;;;;;;;;5546206;25;20107;-73
2024/04/10 08:40:03;;;;;;;;;;;;;;;;;;5546569;25;19935;-71
2024/04/10 08:43:21;;;;;;;;;;;;;;;;;;5622298;25;19926;-72
2024/04/10 08:47:07;;;;;;;;;;;;;;;;;;5622377;25;20370;-72
2024/04/10 08:49:34;;;;;;;;;;;;;;;;;;5622596;25;19926;-73
2024/04/10 08:52:00;;;;;;;;;;;;;;;;;;5622076;25;19933;-72
2024/04/10 08:54:26;;;;;;;;;;;;;;;;;;5588793;25;19926;-72
2024/04/10 08:56:51;;;;;;;;;;;;;;;;;;5622338;25;19934;-72
2024/04/10 08:59:17;;;;;;;;;;;;;;;;;;5588148;25;19926;-71
2024/04/10 09:01:43;;;;;;;;;;;;;;;;;;5622242;25;20430;-71
2024/04/10 09:04:47;;;;;;;;;;;;;;;;;;5622394;25;19934;-71
2024/04/10 09:07:13;;;;;;;;;;;;;;;;;;5588177;25;19926;-71
2024/04/10 09:09:39;;;;;;;;;;;;;;;;;;5622268;25;19934;-71
2024/04/10 09:12:05;;;;;;;;;;;;;;;;;;5621739;25;19927;-72
2024/04/10 09:18:33;;;;;;;;;;;;;;;;;;5621996;25;19937;-72
2024/04/10 09:20:59;;;;;;;;;;;;;;;;;;5621957;25;20359;-72
2024/04/10 09:23:59;;;;;;;;;;;;;;;;;;5622209;25;19933;-71
2024/04/10 09:26:25;;;;;;;;;;;;;;;;;;5621968;25;20344;-70
2024/04/10 09:28:51;;;;;;;;;;;;;;;;;;5588497;25;19930;-70
2024/04/10 09:31:17;;;;;;;;;;;;;;;;;;5622374;25;19930;-71
2024/04/10 09:33:43;;;;;;;;;;;;;;;;;;5621860;25;19926;-71
2024/04/10 09:36:09;;;;;;;;;;;;;;;;;;5588479;25;19927;-72
2024/04/10 09:38:39;;;;;;;;;;;;;;;;;;5588432;25;20355;-71
2024/04/10 09:41:50;;;;;;;;;;;;;;;;;;5472166;26;19928;-71
2024/04/10 09:44:16;;;;;;;;;;;;;;;;;;5472920;26;20381;-71
2024/04/10 09:48:46;;;;;;;;;;;;;;;;;;5472215;26;19935;-71
2024/04/10 09:51:11;;;;;;;;;;;;;;;;;;5470955;26;19935;-71
2024/04/10 09:53:37;;;;;;;;;;;;;;;;;;5472779;26;19929;-71
2024/04/10 09:56:04;;;;;;;;;;;;;;;;;;5470477;26;19936;-70
2024/04/10 09:58:29;;;;;;;;;;;;;;;;;;5472687;26;19928;-71
2024/04/10 10:00:55;;;;;;;;;;;;;;;;;;5472640;26;19934;-71
2024/04/10 10:03:21;;;;;;;;;;;;;;;;;;5472199;26;19968;-71
2024/04/10 10:05:47;;;;;;;;;;;;;;;;;;5470756;26;19935;-71
2024/04/10 10:08:13;;;;;;;;;;;;;;;;;;5470644;26;19928;-71
2024/04/10 10:10:39;;;;;;;;;;;;;;;;;;5472068;26;19928;-71
2024/04/10 10:13:05;;;;;;;;;;;;;;;;;;5472344;26;20051;-71
2024/04/10 10:15:31;;;;;;;;;;;;;;;;;;5472119;26;20388;-71
2024/04/10 10:17:58;;;;;;;;;;;;;;;;;;5472426;26;20292;-70
2024/04/10 10:20:24;;;;;;;;;;;;;;;;;;5472366;26;19997;-71
2024/04/10 10:22:50;;;;;;;;;;;;;;;;;;5471925;26;19936;-71
2024/04/10 10:29:09;;;;;;;;;;;;;;;;;;5547004;25;19927;-71
2024/04/10 10:31:35;;;;;;;;;;;;;;;;;;5546155;25;20296;-71
2024/04/10 10:34:01;;;;;;;;;;;;;;;;;;5546226;25;19980;-71
2024/04/10 10:36:27;;;;;;;;;;;;;;;;;;5546133;25;19935;-71
2024/04/10 10:38:53;;;;;;;;;;;;;;;;;;5546565;25;19976;-70
2024/04/10 10:41:19;;;;;;;;;;;;;;;;;;5544618;25;19927;-70
2024/04/10 10:43:45;;;;;;;;;;;;;;;;;;5545926;25;19927;-70
2024/04/10 10:46:11;;;;;;;;;;;;;;;;;;5546227;25;19995;-70
2024/04/10 10:48:37;;;;;;;;;;;;;;;;;;5546130;25;20026;-70
2024/04/10 10:51:03;;;;;;;;;;;;;;;;;;5545987;25;19927;-71
2024/04/10 10:53:29;;;;;;;;;;;;;;;;;;5546167;25;20338;-71
2024/04/10 10:55:55;;;;;;;;;;;;;;;;;;5546128;25;19934;-71
2024/04/10 10:58:21;;;;;;;;;;;;;;;;;;5543384;25;19927;-71
2024/04/10 11:00:47;;;;;;;;;;;;;;;;;;5545846;25;19934;-71
2024/04/10 11:04:30;;;;;;;;;;;;;;;;;;5472470;26;19935;-71
2024/04/10 11:06:56;;;;;;;;;;;;;;;;;;5472308;26;19936;-71
2024/04/10 11:09:22;;;;;;;;;;;;;;;;;;5470897;26;20001;-71
2024/04/10 11:11:48;;;;;;;;;;;;;;;;;;5472342;26;19928;-72
2024/04/10 11:14:14;;;;;;;;;;;;;;;;;;5472834;26;19929;-71
2024/04/10 11:16:40;;;;;;;;;;;;;;;;;;5472733;26;19998;-71
2024/04/10 11:19:07;;;;;;;;;;;;;;;;;;5472066;26;19964;-71
2024/04/10 11:21:33;;;;;;;;;;;;;;;;;;5470522;26;19932;-71
2024/04/10 11:23:58;;;;;;;;;;;;;;;;;;5472475;26;20415;-71
2024/04/10 11:26:25;;;;;;;;;;;;;;;;;;5472041;26;20252;-71
2024/04/10 11:28:51;;;;;;;;;;;;;;;;;;5472525;26;20357;-71
2024/04/10 11:31:17;;;;;;;;;;;;;;;;;;5470587;26;19940;-71
2024/04/10 11:33:43;;;;;;;;;;;;;;;;;;5471969;26;19935;-72
2024/04/10 11:36:09;;;;;;;;;;;;;;;;;;5472445;26;19997;-71
2024/04/10 11:38:37;;;;;;;;;;;;;;;;;;5472532;26;19928;-71
2024/04/10 11:41:03;;;;;;;;;;;;;;;;;;5471775;26;19936;-71
2024/04/10 11:43:29;;;;;;;;;;;;;;;;;;5472241;26;19928;-71
2024/04/10 11:45:55;;;;;;;;;;;;;;;;;;5470400;26;19940;-71
2024/04/10 11:48:21;;;;;;;;;;;;;;;;;;5469723;26;19936;-71
2024/04/10 11:50:47;;;;;;;;;;;;;;;;;;5472121;26;20365;-71
2024/04/10 11:53:13;;;;;;;;;;;;;;;;;;5472183;26;19939;-72
2024/04/10 11:55:39;;;;;;;;;;;;;;;;;;5471699;26;19933;-72
2024/04/10 11:58:05;;;;;;;;;;;;;;;;;;5472080;26;19935;-71
2024/04/10 12:00:32;;;;;;;;;;;;;;;;;;5471912;26;20265;-71
2024/04/10 12:02:58;;;;;;;;;;;;;;;;;;5471305;26;19932;-71
2024/04/10 12:05:24;;;;;;;;;;;;;;;;;;5472109;26;19985;-72
2024/04/10 12:07:50;;;;;;;;;;;;;;;;;;5472044;26;19954;-71
2024/04/10 12:10:16;;;;;;;;;;;;;;;;;;5469711;26;19934;-72
2024/04/10 12:12:42;;;;;;;;;;;;;;;;;;5472038;26;19928;-72
2024/04/10 12:15:08;;;;;;;;;;;;;;;;;;5460406;26;19940;-72
2024/04/10 12:17:34;;;;;;;;;;;;;;;;;;5456338;26;19935;-72
2024/04/10 12:20:01;;;;;;;;;;;;;;;;;;5456153;26;19929;-72
2024/04/10 12:22:28;;;;;;;;;;;;;;;;;;5455565;26;19935;-72
2024/04/10 12:24:54;;;;;;;;;;;;;;;;;;5456125;26;19936;-72
2024/04/10 12:27:19;;;;;;;;;;;;;;;;;;5456337;26;20003;-72
2024/04/10 12:29:45;;;;;;;;;;;;;;;;;;5455768;26;19929;-71
2024/04/10 12:32:12;;;;;;;;;;;;;;;;;;5456027;26;19929;-72
2024/04/10 12:34:38;;;;;;;;;;;;;;;;;;5455967;26;20365;-71
2024/04/10 12:39:50;;;;;;;;;;;;;;;;;;5456250;26;19931;-71
2024/04/10 12:42:16;;;;;;;;;;;;;;;;;;5455655;26;20377;-71
2024/04/10 12:44:42;;;;;;;;;;;;;;;;;;5455505;26;19929;-71
2024/04/10 12:47:08;;;;;;;;;;;;;;;;;;5455884;26;19993;-71
2024/04/10 12:49:36;;;;;;;;;;;;;;;;;;5454271;26;19960;-71
2024/04/10 12:52:02;;;;;;;;;;;;;;;;;;5455356;26;19928;-71
2024/04/10 12:54:28;;;;;;;;;;;;;;;;;;5453889;26;19960;-72
2024/04/10 12:56:54;;;;;;;;;;;;;;;;;;5453832;26;19935;-71
2024/04/10 12:59:20;;;;;;;;;;;;;;;;;;5455261;26;19935;-71
2024/04/10 13:01:47;;;;;;;;;;;;;;;;;;5455681;26;19960;-71
2024/04/10 13:04:13;;;;;;;;;;;;;;;;;;5455296;26;19934;-71
2024/04/10 13:06:40;;;;;;;;;;;;;;;;;;5455995;26;20325;-71
2024/04/10 13:09:08;;;;;;;;;;;;;;;;;;5454248;26;19928;-72
2024/04/10 13:11:34;;;;;;;;;;;;;;;;;;5455496;26;19978;-71
2024/04/10 13:14:00;;;;;;;;;;;;;;;;;;5455856;26;19940;-71
2024/04/10 13:16:26;;;;;;;;;;;;;;;;;;5455824;26;19936;-71
2024/04/10 13:18:52;;;;;;;;;;;;;;;;;;5455373;26;19928;-71
2024/04/10 13:21:18;;;;;;;;;;;;;;;;;;5455718;26;19929;-72
2024/04/10 13:23:44;;;;;;;;;;;;;;;;;;5453803;26;19929;-71
2024/04/10 13:26:10;;;;;;;;;;;;;;;;;;5453876;26;19928;-72
2024/04/10 13:28:36;;;;;;;;;;;;;;;;;;5455647;26;19929;-71
2024/04/10 13:31:02;;;;;;;;;;;;;;;;;;5455590;26;19937;-70
2024/04/10 13:33:28;;;;;;;;;;;;;;;;;;5455315;26;19944;-71
2024/04/10 13:35:54;;;;;;;;;;;;;;;;;;5453751;26;19928;-72
2024/04/10 13:38:20;;;;;;;;;;;;;;;;;;5455502;26;19939;-72
2024/04/10 13:40:46;;;;;;;;;;;;;;;;;;5455089;26;19932;-71
2024/04/10 13:43:12;;;;;;;;;;;;;;;;;;5453560;26;20349;-71
2024/04/10 13:45:38;;;;;;;;;;;;;;;;;;5455371;26;20424;-71
2024/04/10 13:48:03;;;;;;;;;;;;;;;;;;5455048;26;20001;-71
2024/04/10 13:50:29;;;;;;;;;;;;;;;;;;5453921;26;19928;-71
2024/04/10 13:52:55;;;;;;;;;;;;;;;;;;5455378;26;19940;-71
2024/04/10 13:55:22;;;;;;;;;;;;;;;;;;5454839;26;19935;-71
2024/04/10 13:57:48;;;;;;;;;;;;;;;;;;5455120;26;19938;-71
2024/04/10 14:00:14;;;;;;;;;;;;;;;;;;5455048;26;19928;-70
2024/04/10 14:02:39;;;;;;;;;;;;;;;;;;5454256;26;19978;-71
2024/04/10 14:05:07;;;;;;;;;;;;;;;;;;5454918;26;19955;-71
2024/04/10 14:07:33;;;;;;;;;;;;;;;;;;5452461;26;19957;-71
2024/04/10 14:09:59;;;;;;;;;;;;;;;;;;5454836;26;20280;-71
2024/04/10 14:12:25;;;;;;;;;;;;;;;;;;5452920;26;19939;-71
2024/04/10 14:14:51;;;;;;;;;;;;;;;;;;5454276;26;19928;-71
2024/04/10 14:17:17;;;;;;;;;;;;;;;;;;5454732;26;19929;-71
2024/04/10 14:19:43;;;;;;;;;;;;;;;;;;5452743;26;19961;-71
2024/04/10 14:22:09;;;;;;;;;;;;;;;;;;5452203;26;19941;-71
2024/04/10 14:24:35;;;;;;;;;;;;;;;;;;5454747;26;19955;-71
2024/04/10 14:27:01;;;;;;;;;;;;;;;;;;5454580;26;19928;-71
2024/04/10 14:29:27;;;;;;;;;;;;;;;;;;5454011;26;19937;-70
2024/04/10 14:31:53;;;;;;;;;;;;;;;;;;5452615;26;19935;-71
2024/04/10 14:34:19;;;;;;;;;;;;;;;;;;5454468;26;20368;-71
2024/04/10 14:36:45;;;;;;;;;;;;;;;;;;5453922;26;19936;-71
2024/04/10 14:39:11;;;;;;;;;;;;;;;;;;5454160;26;19997;-71
2024/04/10 14:41:37;;;;;;;;;;;;;;;;;;5454237;26;20250;-71
2024/04/10 14:44:03;;;;;;;;;;;;;;;;;;5453679;26;19978;-71
2024/04/10 14:46:28;;;;;;;;;;;;;;;;;;5454146;26;19928;-70
2024/04/10 14:48:54;;;;;;;;;;;;;;;;;;5452300;26;19956;-71
2024/04/10 14:51:23;;;;;;;;;;;;;;;;;;5451959;26;19968;-71
2024/04/10 14:53:49;;;;;;;;;;;;;;;;;;5454132;26;20014;-71
2024/04/10 14:56:17;;;;;;;;;;;;;;;;;;5454084;26;19935;-71
2024/04/10 14:58:43;;;;;;;;;;;;;;;;;;5453524;26;19928;-71
2024/04/10 15:01:09;;;;;;;;;;;;;;;;;;5453862;26;19932;-71
2024/04/10 15:03:35;;;;;;;;;;;;;;;;;;5453842;26;19929;-71
2024/04/10 15:06:01;;;;;;;;;;;;;;;;;;5453661;26;19933;-71
2024/04/10 15:08:27;;;;;;;;;;;;;;;;;;5454132;26;19928;-71
2024/04/10 15:10:53;;;;;;;;;;;;;;;;;;5453594;26;19935;-71
2024/04/10 15:13:18;;;;;;;;;;;;;;;;;;5454046;26;19932;-71
2024/04/10 15:15:44;;;;;;;;;;;;;;;;;;5454074;26;19928;-71
2024/04/10 15:18:10;;;;;;;;;;;;;;;;;;5451696;26;19928;-71
2024/04/10 15:20:36;;;;;;;;;;;;;;;;;;5454032;26;20410;-71
2024/04/10 15:23:02;;;;;;;;;;;;;;;;;;5453644;26;19929;-71
2024/04/10 15:25:28;;;;;;;;;;;;;;;;;;5453164;26;19928;-70
2024/04/10 15:27:54;;;;;;;;;;;;;;;;;;5453717;26;20371;-71
2024/04/10 15:30:20;;;;;;;;;;;;;;;;;;5453751;26;20322;-72
2024/04/10 15:32:46;;;;;;;;;;;;;;;;;;5453065;26;19936;-71
2024/04/10 15:35:12;;;;;;;;;;;;;;;;;;5453571;26;19978;-71
2024/04/10 15:37:38;;;;;;;;;;;;;;;;;;5451567;26;19940;-71
2024/04/10 15:40:05;;;;;;;;;;;;;;;;;;5451136;26;19932;-72
2024/04/10 15:42:31;;;;;;;;;;;;;;;;;;5453485;26;19936;-72
2024/04/10 15:44:57;;;;;;;;;;;;;;;;;;5453428;26;19935;-71
2024/04/10 15:47:23;;;;;;;;;;;;;;;;;;5453035;26;19928;-71
2024/04/10 15:49:49;;;;;;;;;;;;;;;;;;5454758;26;19932;-71
2024/04/10 15:52:18;;;;;;;;;;;;;;;;;;5457048;26;19932;-71
2024/04/10 15:54:44;;;;;;;;;;;;;;;;;;5456390;26;19997;-72
2024/04/10 15:57:10;;;;;;;;;;;;;;;;;;5456973;26;19929;-72
2024/04/10 15:59:36;;;;;;;;;;;;;;;;;;5457110;26;19929;-72
2024/04/10 16:02:02;;;;;;;;;;;;;;;;;;5456297;26;19935;-72
2024/04/10 16:04:27;;;;;;;;;;;;;;;;;;5454985;26;19932;-72
2024/04/10 16:06:53;;;;;;;;;;;;;;;;;;5456961;26;20338;-72
2024/04/10 16:09:19;;;;;;;;;;;;;;;;;;5454440;26;19929;-72
2024/04/10 16:11:45;;;;;;;;;;;;;;;;;;5455115;26;20061;-72
2024/04/10 16:14:11;;;;;;;;;;;;;;;;;;5456231;26;19977;-72
2024/04/10 16:16:37;;;;;;;;;;;;;;;;;;5454837;26;19928;-72
2024/04/10 16:19:03;;;;;;;;;;;;;;;;;;5456697;26;19936;-72
2024/04/10 16:21:29;;;;;;;;;;;;;;;;;;5456108;26;19932;-72
2024/04/10 16:23:56;;;;;;;;;;;;;;;;;;5456494;26;19935;-72
2024/04/10 16:26:29;;;;;;;;;;;;;;;;;;5456372;26;19929;-72
2024/04/10 16:28:55;;;;;;;;;;;;;;;;;;5454134;26;20265;-71
2024/04/10 16:31:21;;;;;;;;;;;;;;;;;;5456644;26;19928;-72
2024/04/10 16:33:47;;;;;;;;;;;;;;;;;;5456468;26;20264;-72
2024/04/10 16:36:13;;;;;;;;;;;;;;;;;;5455985;26;19929;-72
2024/04/10 16:38:39;;;;;;;;;;;;;;;;;;5456467;26;19935;-72
2024/04/10 16:41:05;;;;;;;;;;;;;;;;;;5456462;26;19997;-72
2024/04/10 16:43:31;;;;;;;;;;;;;;;;;;5455981;26;19928;-72
2024/04/10 16:45:57;;;;;;;;;;;;;;;;;;5456375;26;19932;-72
2024/04/10 16:48:23;;;;;;;;;;;;;;;;;;5454418;26;19996;-72
2024/04/10 16:50:49;;;;;;;;;;;;;;;;;;5456106;26;19936;-72
2024/04/10 16:53:15;;;;;;;;;;;;;;;;;;5456117;26;19937;-72
2024/04/10 16:55:41;;;;;;;;;;;;;;;;;;5456010;26;19936;-72
2024/04/10 16:58:10;;;;;;;;;;;;;;;;;;5453899;26;19929;-72
2024/04/10 17:00:36;;;;;;;;;;;;;;;;;;5456283;26;20001;-72
2024/04/10 17:04:50;;;;;;;;;;;;;;;;;;5621783;25;20362;-71
2024/04/10 17:07:16;;;;;;;;;;;;;;;;;;5622430;25;19997;-72
2024/04/10 17:09:42;;;;;;;;;;;;;;;;;;5622264;25;20359;-73
2024/04/10 17:12:08;;;;;;;;;;;;;;;;;;5622077;25;19934;-74
2024/04/10 17:14:34;;;;;;;;;;;;;;;;;;5622443;25;19926;-73
2024/04/10 17:17:00;;;;;;;;;;;;;;;;;;5622414;25;19933;-72
2024/04/10 17:22:11;;;;;;;;;;;;;;;;;;5622382;25;19930;-72
2024/04/10 17:24:37;;;;;;;;;;;;;;;;;;5587811;25;19930;-71